Time;durP1;ratioP1;P1;durP2;ratioP2;P2;SDS_P1;SDS_P2;PMS_P1;PMS_P2;Temp;Humidity;BMP_temperature;BMP_pressure;BME280_temperature;BME280_humidity;BME280_pressure;Samples;Min_cycle;Max_cycle;Signal;HPM_P1;HPM_P2
2023/08/11 00:00:41;;;;;;;10.63;5.05;;;17.20;99.90;;;;;;5073828;28;20057;-67
2023/08/11 00:03:07;;;;;;;10.23;5.60;;;17.30;99.90;;;;;;5027316;28;20065;-70
2023/08/11 00:05:39;;;;;;;9.40;5.53;;;17.30;99.90;;;;;;5050814;28;20052;-67
2023/08/11 00:08:05;;;;;;;9.48;5.47;;;17.20;99.90;;;;;;5064573;28;20083;-67
2023/08/11 00:10:32;;;;;;;9.40;5.20;;;17.20;99.90;;;;;;5047539;28;20499;-67
2023/08/11 00:12:58;;;;;;;10.27;4.97;;;17.20;99.90;;;;;;5037060;28;20135;-67
2023/08/11 00:15:24;;;;;;;9.15;5.80;;;17.20;99.90;;;;;;5048933;28;20123;-69
2023/08/11 00:17:52;;;;;;;11.00;5.97;;;17.10;99.90;;;;;;5047536;28;20049;-67
2023/08/11 00:20:18;;;;;;;12.93;6.47;;;17.10;99.90;;;;;;5046989;28;20482;-68
2023/08/11 00:22:44;;;;;;;10.82;6.18;;;17.10;99.90;;;;;;5064340;28;20043;-66
2023/08/11 00:25:10;;;;;;;10.05;6.00;;;17.10;99.90;;;;;;5066891;28;20075;-68
2023/08/11 00:27:36;;;;;;;11.88;6.00;;;17.00;99.90;;;;;;5060516;28;20045;-67
2023/08/11 00:30:04;;;;;;;9.73;6.43;;;17.00;99.90;;;;;;5053134;28;20068;-67
2023/08/11 00:32:29;;;;;;;11.40;6.28;;;16.90;99.90;;;;;;5030481;28;20136;-66
2023/08/11 00:34:55;;;;;;;9.50;6.68;;;16.90;99.90;;;;;;5053409;28;20134;-68
2023/08/11 00:37:20;;;;;;;9.90;6.68;;;16.80;99.90;;;;;;5050223;28;20044;-66
2023/08/11 00:39:46;;;;;;;9.90;6.35;;;16.80;99.90;;;;;;5066973;28;20044;-68
2023/08/11 00:42:11;;;;;;;10.07;6.97;;;16.70;99.90;;;;;;5032989;28;20051;-67
2023/08/11 00:44:37;;;;;;;10.57;7.20;;;16.70;99.90;;;;;;5054750;28;20051;-67
2023/08/11 00:47:03;;;;;;;15.40;8.00;;;16.60;99.90;;;;;;5030017;28;20397;-66
2023/08/11 00:49:29;;;;;;;11.90;7.85;;;16.60;99.90;;;;;;5051206;28;20122;-66
2023/08/11 00:51:54;;;;;;;18.98;8.18;;;16.50;99.90;;;;;;5068164;28;20028;-66
2023/08/11 00:54:21;;;;;;;13.57;8.75;;;16.50;99.90;;;;;;5068127;28;20036;-67
2023/08/11 00:56:48;;;;;;;12.95;8.10;;;16.50;99.90;;;;;;5051642;28;20137;-68
2023/08/11 00:59:19;;;;;;;12.68;8.25;;;16.50;99.90;;;;;;5046518;28;20464;-67
2023/08/11 01:01:45;;;;;;;16.38;9.05;;;16.40;99.90;;;;;;5046393;28;20064;-66
2023/08/11 01:04:10;;;;;;;13.48;8.90;;;16.40;99.90;;;;;;5046468;28;20053;-68
2023/08/11 01:06:45;;;;;;;12.30;8.45;;;16.40;99.90;;;;;;5063923;28;20040;-67
2023/08/11 01:09:35;;;;;;;13.10;9.52;;;16.30;99.90;;;;;;5063015;28;20040;-67
2023/08/11 01:12:45;;;;;;;12.63;9.18;;;16.30;99.90;;;;;;5028796;28;20044;-68
2023/08/11 01:15:20;;;;;;;14.27;9.65;;;16.30;99.90;;;;;;5017429;28;20057;-67
2023/08/11 01:17:48;;;;;;;15.68;9.77;;;16.20;99.90;;;;;;5027823;28;20108;-68
2023/08/11 01:20:16;;;;;;;12.50;8.77;;;16.20;99.90;;;;;;5068693;28;20044;-67
2023/08/11 01:22:46;;;;;;;15.80;9.57;;;16.20;99.90;;;;;;5067288;28;20119;-68
2023/08/11 01:25:12;;;;;;;15.15;9.60;;;16.10;99.90;;;;;;5048653;28;20040;-71
2023/08/11 01:27:45;;;;;;;12.95;9.10;;;16.10;99.90;;;;;;5047144;28;20450;-67
2023/08/11 01:30:13;;;;;;;13.65;9.52;;;16.00;99.90;;;;;;5045894;28;20037;-67
2023/08/11 01:32:38;;;;;;;15.18;9.80;;;16.00;99.90;;;;;;5079232;28;20103;-68
2023/08/11 01:35:09;;;;;;;14.02;10.43;;;15.90;99.90;;;;;;5028731;28;20041;-67
2023/08/11 01:37:35;;;;;;;16.77;10.80;;;15.90;99.90;;;;;;5047952;28;20050;-67
2023/08/11 01:40:00;;;;;;;15.50;9.75;;;15.80;99.90;;;;;;5065554;28;20135;-67
2023/08/11 01:42:26;;;;;;;15.23;10.55;;;15.80;99.90;;;;;;5062966;28;20049;-68
2023/08/11 01:44:52;;;;;;;15.13;9.68;;;15.70;99.90;;;;;;5057293;28;20547;-68
2023/08/11 01:47:19;;;;;;;15.63;11.00;;;15.70;99.90;;;;;;5048834;28;20036;-68
2023/08/11 01:49:46;;;;;;;16.38;11.30;;;15.70;99.90;;;;;;5053225;28;20079;-67
2023/08/11 01:52:12;;;;;;;17.45;11.77;;;15.70;99.90;;;;;;5045588;28;20476;-67
2023/08/11 01:54:38;;;;;;;14.82;11.23;;;15.60;99.90;;;;;;5029145;28;20099;-66
2023/08/11 01:57:05;;;;;;;17.73;11.43;;;15.60;99.90;;;;;;5044527;28;20053;-68
2023/08/11 01:59:30;;;;;;;15.30;10.63;;;15.60;99.90;;;;;;5045584;28;20329;-67
2023/08/11 02:01:56;;;;;;;14.73;11.23;;;15.60;99.90;;;;;;5045268;28;20061;-68
2023/08/11 02:04:22;;;;;;;15.32;11.38;;;15.50;99.90;;;;;;5028826;28;20055;-67
2023/08/11 02:06:49;;;;;;;16.30;11.65;;;15.50;99.90;;;;;;5028437;28;20135;-69
2023/08/11 02:09:14;;;;;;;15.98;11.13;;;15.50;99.90;;;;;;5046020;28;20254;-67
2023/08/11 02:11:40;;;;;;;19.48;12.35;;;15.40;99.90;;;;;;5064893;28;20480;-67
2023/08/11 02:14:06;;;;;;;17.02;11.30;;;15.40;99.90;;;;;;5045508;28;20516;-67
2023/08/11 02:16:32;;;;;;;17.33;12.30;;;15.40;99.90;;;;;;5044940;28;20048;-66
2023/08/11 02:18:59;;;;;;;18.42;11.65;;;15.40;99.90;;;;;;5045328;28;20114;-68
2023/08/11 02:21:26;;;;;;;17.13;11.68;;;15.30;99.90;;;;;;5046442;28;20094;-68
2023/08/11 02:23:52;;;;;;;18.33;13.20;;;15.30;99.90;;;;;;5050570;28;20281;-67
2023/08/11 02:26:17;;;;;;;15.25;11.40;;;15.30;99.90;;;;;;5047670;28;20094;-67
2023/08/11 02:28:43;;;;;;;16.52;12.43;;;15.20;99.90;;;;;;5050421;28;20029;-69
2023/08/11 02:31:09;;;;;;;15.98;12.55;;;15.20;99.90;;;;;;5024635;28;20069;-66
2023/08/11 02:33:35;;;;;;;21.35;13.38;;;15.20;99.90;;;;;;5061532;28;20041;-67
2023/08/11 02:36:01;;;;;;;19.45;12.90;;;15.20;99.90;;;;;;5065864;28;20037;-68
2023/08/11 02:38:26;;;;;;;17.65;12.20;;;15.10;99.90;;;;;;5047907;28;20044;-68
2023/08/11 02:40:52;;;;;;;18.17;14.38;;;15.10;99.90;;;;;;5062848;28;20041;-69
2023/08/11 02:43:17;;;;;;;17.38;12.05;;;15.10;99.90;;;;;;5054767;28;20040;-70
2023/08/11 02:45:43;;;;;;;19.42;13.27;;;15.10;99.90;;;;;;5045466;28;20041;-70
2023/08/11 02:48:09;;;;;;;17.65;13.30;;;15.10;99.90;;;;;;5048291;28;20032;-69
2023/08/11 02:50:34;;;;;;;23.58;13.88;;;15.10;99.90;;;;;;5064278;28;20119;-68
2023/08/11 02:53:00;;;;;;;18.90;13.13;;;15.10;99.90;;;;;;5064375;28;20446;-68
2023/08/11 02:55:25;;;;;;;18.02;12.85;;;15.10;99.90;;;;;;5065531;28;20052;-69
2023/08/11 02:57:51;;;;;;;18.92;13.15;;;15.10;99.90;;;;;;5039761;28;20456;-67
2023/08/11 03:00:17;;;;;;;18.50;13.40;;;15.10;99.90;;;;;;5060311;28;20419;-67
2023/08/11 03:02:46;;;;;;;20.85;13.95;;;15.10;99.90;;;;;;5065251;28;20446;-67
2023/08/11 03:05:14;;;;;;;17.05;12.93;;;15.10;99.90;;;;;;5064111;28;20076;-68
2023/08/11 03:07:41;;;;;;;19.33;12.23;;;15.10;99.90;;;;;;5045258;28;20475;-68
2023/08/11 03:10:09;;;;;;;18.38;13.73;;;15.10;99.90;;;;;;5064218;28;20045;-69
2023/08/11 03:12:35;;;;;;;22.40;14.68;;;15.10;99.90;;;;;;5060622;28;20033;-68
2023/08/11 03:15:04;;;;;;;20.95;14.23;;;15.10;99.90;;;;;;5056722;28;20047;-67
2023/08/11 03:17:30;;;;;;;17.25;12.82;;;15.00;99.90;;;;;;5063728;28;20048;-69
2023/08/11 03:19:55;;;;;;;16.95;13.40;;;15.00;99.90;;;;;;5045950;28;20399;-67
2023/08/11 03:22:21;;;;;;;17.27;12.35;;;15.00;99.90;;;;;;5063425;28;20040;-68
2023/08/11 03:24:46;;;;;;;16.60;12.23;;;15.00;99.90;;;;;;5045243;28;20453;-68
2023/08/11 03:27:12;;;;;;;16.10;12.50;;;15.00;99.90;;;;;;5061458;28;20084;-68
2023/08/11 03:29:38;;;;;;;18.27;13.02;;;15.00;99.90;;;;;;5054627;28;20041;-69
2023/08/11 03:32:04;;;;;;;18.75;12.50;;;15.00;99.90;;;;;;5034434;28;20096;-67
2023/08/11 03:34:30;;;;;;;17.27;12.07;;;15.00;99.90;;;;;;5043870;28;20040;-67
2023/08/11 03:36:56;;;;;;;17.30;12.18;;;15.00;99.90;;;;;;5050247;28;20059;-68
2023/08/11 03:39:22;;;;;;;16.45;12.30;;;15.00;99.90;;;;;;5063851;28;20102;-68
2023/08/11 03:41:47;;;;;;;16.83;12.38;;;15.00;99.90;;;;;;5044807;28;20039;-67
2023/08/11 03:44:13;;;;;;;17.25;12.55;;;14.90;99.90;;;;;;5045218;28;20044;-68
2023/08/11 03:46:39;;;;;;;17.05;12.40;;;14.90;99.90;;;;;;5044979;28;20041;-69
2023/08/11 03:49:08;;;;;;;18.13;12.60;;;14.90;99.90;;;;;;5043731;28;20082;-68
2023/08/11 03:51:34;;;;;;;16.42;12.15;;;14.90;99.90;;;;;;5023674;28;20546;-69
2023/08/11 03:54:02;;;;;;;18.35;12.60;;;14.90;99.90;;;;;;5023584;28;20117;-68
2023/08/11 03:56:28;;;;;;;17.40;12.15;;;14.80;99.90;;;;;;5062107;28;20080;-68
2023/08/11 03:58:54;;;;;;;42.00;13.00;;;14.80;99.90;;;;;;5039642;28;20064;-69
2023/08/11 04:01:20;;;;;;;18.67;11.82;;;14.80;99.90;;;;;;5044920;28;20523;-68
2023/08/11 04:03:45;;;;;;;18.95;12.23;;;14.80;99.90;;;;;;5026923;28;20057;-69
2023/08/11 04:06:11;;;;;;;16.00;11.75;;;14.70;99.90;;;;;;5026738;28;20465;-68
2023/08/11 04:08:37;;;;;;;15.20;10.95;;;14.70;99.90;;;;;;5059007;28;20040;-68
2023/08/11 04:11:03;;;;;;;16.85;10.55;;;14.70;99.90;;;;;;5063205;28;20040;-68
2023/08/11 04:13:28;;;;;;;17.52;11.85;;;14.60;99.90;;;;;;5050626;28;20037;-68
2023/08/11 04:15:54;;;;;;;18.17;10.52;;;14.60;99.90;;;;;;5064806;28;20437;-68
2023/08/11 04:18:20;;;;;;;15.38;11.25;;;14.60;99.90;;;;;;5063118;28;20048;-70
2023/08/11 04:20:49;;;;;;;20.92;12.35;;;14.60;99.90;;;;;;5044356;28;20814;-68
2023/08/11 04:23:15;;;;;;;16.48;11.73;;;14.70;99.90;;;;;;5064612;28;20083;-68
2023/08/11 04:25:40;;;;;;;17.48;11.57;;;14.70;99.90;;;;;;5064403;28;20076;-69
2023/08/11 04:28:06;;;;;;;15.95;10.88;;;14.70;99.90;;;;;;5042022;28;20071;-68
2023/08/11 04:30:32;;;;;;;17.95;12.13;;;14.80;99.90;;;;;;5059722;28;20338;-69
2023/08/11 04:32:59;;;;;;;14.68;10.00;;;14.80;99.90;;;;;;5023396;28;20041;-70
2023/08/11 04:35:25;;;;;;;15.40;10.55;;;14.90;99.90;;;;;;5032742;28;20068;-69
2023/08/11 04:37:51;;;;;;;18.60;10.75;;;15.00;99.90;;;;;;5064737;28;20542;-68
2023/08/11 04:40:17;;;;;;;19.73;10.52;;;15.20;99.90;;;;;;5063173;28;20036;-66
2023/08/11 04:42:43;;;;;;;18.08;10.10;;;15.30;99.90;;;;;;5058474;28;20040;-72
2023/08/11 04:45:10;;;;;;;19.83;9.88;;;15.50;99.90;;;;;;5058190;28;20068;-66
2023/08/11 04:47:35;;;;;;;17.45;10.20;;;15.60;99.90;;;;;;5064362;28;20088;-67
2023/08/11 04:50:01;;;;;;;15.25;9.70;;;15.80;99.90;;;;;;5048726;28;20075;-67
2023/08/11 04:52:27;;;;;;;13.85;8.48;;;15.90;99.90;;;;;;5046559;28;20403;-70
2023/08/11 04:54:53;;;;;;;13.68;9.43;;;16.00;99.90;;;;;;5029966;28;20659;-68
2023/08/11 04:57:20;;;;;;;15.55;9.00;;;16.10;99.90;;;;;;5047532;28;20045;-67
2023/08/11 04:59:45;;;;;;;13.98;9.20;;;16.30;99.90;;;;;;5048271;28;20096;-69
2023/08/11 05:02:11;;;;;;;14.88;9.52;;;16.40;99.90;;;;;;5046244;28;20065;-67
2023/08/11 05:04:38;;;;;;;13.25;9.70;;;16.50;99.90;;;;;;5029528;28;20056;-69
2023/08/11 05:07:06;;;;;;;13.65;8.27;;;16.70;99.90;;;;;;5066145;28;20047;-67
2023/08/11 05:09:32;;;;;;;13.60;8.40;;;16.90;99.90;;;;;;5066412;28;20083;-66
2023/08/11 05:11:58;;;;;;;14.90;8.05;;;17.00;99.90;;;;;;5049281;28;20275;-65
2023/08/11 05:14:23;;;;;;;13.57;8.77;;;17.10;99.90;;;;;;5054131;28;20029;-68
2023/08/11 05:16:49;;;;;;;14.57;8.70;;;17.20;99.90;;;;;;5066006;28;20044;-66
2023/08/11 05:19:15;;;;;;;12.90;7.90;;;17.30;99.90;;;;;;5061849;28;20041;-67
2023/08/11 05:21:40;;;;;;;14.43;7.35;;;17.40;99.90;;;;;;5046074;28;20499;-69
2023/08/11 05:24:07;;;;;;;11.93;7.85;;;17.50;99.90;;;;;;5046195;28;20474;-68
2023/08/11 05:26:33;;;;;;;13.77;8.05;;;17.70;99.90;;;;;;5045937;28;20041;-67
2023/08/11 05:28:58;;;;;;;15.30;7.15;;;17.90;99.90;;;;;;5058240;28;20039;-67
2023/08/11 05:31:24;;;;;;;15.93;7.63;;;18.00;99.90;;;;;;5042471;28;20055;-67
2023/08/11 05:33:50;;;;;;;11.57;7.80;;;18.20;99.90;;;;;;5045779;28;20045;-68
2023/08/11 05:36:15;;;;;;;11.88;6.80;;;18.70;99.90;;;;;;5029319;28;20068;-68
2023/08/11 05:38:41;;;;;;;12.95;7.00;;;19.00;99.90;;;;;;5063911;28;20135;-68
2023/08/11 05:41:06;;;;;;;10.75;6.50;;;19.50;99.90;;;;;;5048902;28;20387;-66
2023/08/11 05:43:32;;;;;;;10.35;6.63;;;19.70;99.90;;;;;;5053613;28;20044;-66
2023/08/11 05:45:57;;;;;;;9.80;6.40;;;20.00;99.90;;;;;;5029290;28;20112;-67
2023/08/11 05:48:23;;;;;;;14.32;6.70;;;20.40;99.90;;;;;;5029436;28;20033;-68
2023/08/11 05:50:50;;;;;;;11.75;6.57;;;20.60;99.90;;;;;;5046804;28;20112;-67
2023/08/11 05:53:15;;;;;;;9.18;6.05;;;20.70;99.90;;;;;;5045580;28;20041;-67
2023/08/11 05:55:41;;;;;;;11.18;6.50;;;20.50;99.90;;;;;;5046953;28;20048;-69
2023/08/11 05:58:07;;;;;;;11.27;6.35;;;20.70;99.90;;;;;;5058513;28;20560;-67
2023/08/11 06:00:33;;;;;;;9.38;5.88;;;20.80;99.90;;;;;;5047541;28;20113;-65
2023/08/11 06:02:58;;;;;;;9.40;6.28;;;20.60;99.90;;;;;;5045175;28;20102;-66
2023/08/11 06:05:24;;;;;;;8.95;6.13;;;20.60;99.90;;;;;;5063587;28;20048;-66
2023/08/11 06:07:52;;;;;;;11.65;5.95;;;20.80;99.90;;;;;;5054212;28;20041;-69
2023/08/11 06:10:17;;;;;;;9.85;5.90;;;21.00;99.90;;;;;;5045254;28;20095;-67
2023/08/11 06:12:43;;;;;;;12.40;6.13;;;20.80;99.90;;;;;;5048560;28;20029;-68
2023/08/11 06:15:09;;;;;;;9.73;5.85;;;20.50;99.90;;;;;;5063085;28;20159;-67
2023/08/11 06:17:36;;;;;;;13.38;5.82;;;20.40;99.90;;;;;;5066904;28;20097;-67
2023/08/11 06:20:04;;;;;;;13.52;6.45;;;20.40;99.90;;;;;;5066369;28;20120;-66
2023/08/11 06:22:31;;;;;;;11.18;5.80;;;20.30;99.90;;;;;;5046885;28;20044;-66
2023/08/11 06:24:56;;;;;;;10.52;5.82;;;20.30;99.90;;;;;;5044650;28;20045;-66
2023/08/11 06:27:22;;;;;;;13.93;6.50;;;20.30;99.90;;;;;;5044924;28;20060;-64
2023/08/11 06:29:48;;;;;;;10.40;5.68;;;20.30;99.90;;;;;;5053127;28;20072;-66
2023/08/11 06:32:13;;;;;;;11.13;6.38;;;20.30;99.90;;;;;;5030723;28;20041;-66
2023/08/11 06:34:39;;;;;;;11.82;5.97;;;20.30;99.90;;;;;;5025110;28;20489;-66
2023/08/11 06:37:04;;;;;;;15.27;7.00;;;20.30;99.90;;;;;;5026013;28;20034;-66
2023/08/11 06:39:30;;;;;;;11.93;6.22;;;20.30;99.90;;;;;;5056990;28;20045;-68
2023/08/11 06:41:55;;;;;;;10.10;5.80;;;20.40;99.90;;;;;;5065884;28;20048;-67
2023/08/11 06:44:21;;;;;;;11.55;5.85;;;20.50;99.90;;;;;;5052376;28;20036;-66
2023/08/11 06:46:47;;;;;;;11.27;6.50;;;20.50;99.90;;;;;;5064207;28;20048;-66
2023/08/11 06:49:12;;;;;;;10.57;6.35;;;20.50;99.90;;;;;;5046028;28;20584;-67
2023/08/11 06:51:38;;;;;;;11.98;6.10;;;20.60;99.90;;;;;;5047749;28;20033;-68
2023/08/11 06:54:03;;;;;;;8.90;5.18;;;20.70;99.90;;;;;;5065544;28;20044;-67
2023/08/11 06:56:29;;;;;;;18.73;5.40;;;20.80;99.90;;;;;;5044831;28;20416;-67
2023/08/11 06:58:55;;;;;;;10.25;5.35;;;20.80;99.90;;;;;;5052302;28;20041;-67
2023/08/11 07:01:20;;;;;;;10.38;5.38;;;20.90;99.90;;;;;;5027501;28;20172;-66
2023/08/11 07:03:46;;;;;;;9.05;5.20;;;20.90;99.90;;;;;;5027768;28;20079;-66
2023/08/11 07:06:12;;;;;;;10.43;5.30;;;21.00;99.90;;;;;;5044090;28;20140;-68
2023/08/11 07:08:39;;;;;;;11.15;5.60;;;21.10;99.90;;;;;;5062762;28;20051;-64
2023/08/11 07:11:05;;;;;;;8.95;5.57;;;21.10;99.90;;;;;;5046764;28;20103;-68
2023/08/11 07:13:31;;;;;;;11.25;5.75;;;21.20;99.90;;;;;;5051910;28;20041;-67
2023/08/11 07:15:57;;;;;;;7.40;4.47;;;21.20;99.90;;;;;;5007651;28;20045;-67
2023/08/11 07:18:23;;;;;;;10.85;5.38;;;21.30;99.90;;;;;;5024149;28;20049;-67
2023/08/11 07:20:49;;;;;;;9.48;5.05;;;21.30;99.90;;;;;;5051029;28;20061;-66
2023/08/11 07:23:16;;;;;;;8.85;5.00;;;21.40;99.90;;;;;;5046723;28;20483;-67
2023/08/11 07:25:42;;;;;;;10.80;4.43;;;21.40;99.90;;;;;;5063685;28;20055;-67
2023/08/11 07:28:08;;;;;;;10.45;4.07;;;21.40;99.90;;;;;;5045763;28;20066;-65
2023/08/11 07:30:36;;;;;;;8.15;4.07;;;21.40;99.90;;;;;;5061335;28;20032;-67
2023/08/11 07:33:02;;;;;;;11.52;4.47;;;21.50;99.90;;;;;;5045242;28;20459;-67
2023/08/11 07:35:28;;;;;;;10.65;4.53;;;21.50;99.90;;;;;;5027154;28;20128;-68
2023/08/11 07:37:53;;;;;;;9.35;4.70;;;21.50;99.90;;;;;;5044921;28;20446;-69
2023/08/11 07:40:19;;;;;;;8.20;4.22;;;21.50;99.90;;;;;;5043587;28;20099;-67
2023/08/11 07:42:44;;;;;;;9.07;4.57;;;21.60;99.90;;;;;;5034619;28;20331;-67
2023/08/11 07:45:10;;;;;;;21.13;5.15;;;21.60;99.90;;;;;;5048569;28;20487;-67
2023/08/11 07:47:36;;;;;;;8.57;4.20;;;21.70;99.90;;;;;;5043632;28;20834;-68
2023/08/11 07:50:02;;;;;;;10.20;3.78;;;21.80;99.90;;;;;;5050921;28;20503;-68
2023/08/11 07:52:28;;;;;;;9.38;4.35;;;21.80;99.90;;;;;;5061955;28;20324;-67
2023/08/11 07:54:53;;;;;;;7.40;3.97;;;21.90;99.90;;;;;;5043837;28;20381;-68
2023/08/11 07:57:19;;;;;;;7.90;4.10;;;21.90;99.90;;;;;;5043012;28;20041;-68
2023/08/11 07:59:45;;;;;;;7.93;4.03;;;21.90;99.90;;;;;;5044404;28;20037;-68
2023/08/11 08:02:12;;;;;;;8.77;4.15;;;22.00;99.90;;;;;;5064671;28;20139;-68
2023/08/11 08:04:38;;;;;;;8.60;3.40;;;22.00;99.90;;;;;;5045953;28;20076;-68
2023/08/11 08:07:04;;;;;;;7.93;3.55;;;22.00;99.90;;;;;;5059886;28;20476;-67
2023/08/11 08:09:33;;;;;;;7.97;3.40;;;22.10;99.90;;;;;;5045127;28;20094;-66
2023/08/11 08:11:59;;;;;;;7.00;3.85;;;22.20;99.90;;;;;;5044794;28;20519;-67
2023/08/11 08:14:25;;;;;;;7.43;3.38;;;22.30;99.90;;;;;;5042644;28;20069;-69
2023/08/11 08:16:51;;;;;;;11.55;3.85;;;22.30;99.90;;;;;;5063468;28;20637;-68
2023/08/11 08:19:18;;;;;;;7.60;3.03;;;22.40;99.90;;;;;;5063447;28;20044;-68
2023/08/11 08:21:46;;;;;;;7.18;3.15;;;22.40;99.90;;;;;;5044065;28;20049;-69
2023/08/11 08:24:14;;;;;;;7.28;3.42;;;22.60;99.90;;;;;;5030606;28;20044;-67
2023/08/11 08:26:40;;;;;;;7.28;3.42;;;22.60;99.90;;;;;;5048327;28;20383;-67
2023/08/11 08:29:06;;;;;;;11.38;3.40;;;22.70;99.90;;;;;;5055128;28;20036;-67
2023/08/11 08:31:32;;;;;;;9.02;3.60;;;22.70;99.90;;;;;;5046861;28;20041;-67
2023/08/11 08:33:58;;;;;;;6.90;3.38;;;22.80;99.90;;;;;;5030945;28;20048;-66
2023/08/11 08:36:24;;;;;;;9.73;3.70;;;22.80;99.90;;;;;;5068293;28;20044;-67
2023/08/11 08:38:49;;;;;;;6.78;3.88;;;22.90;99.90;;;;;;5050770;28;20060;-68
2023/08/11 08:41:20;;;;;;;7.47;3.50;;;22.90;99.90;;;;;;5064273;28;20056;-67
2023/08/11 08:43:46;;;;;;;8.13;3.47;;;23.00;99.90;;;;;;5047048;28;20455;-66
2023/08/11 08:46:14;;;;;;;7.82;3.60;;;23.00;99.90;;;;;;5046651;28;20041;-66
2023/08/11 08:48:47;;;;;;;6.93;3.42;;;23.00;99.90;;;;;;5047031;28;20134;-65
2023/08/11 08:51:13;;;;;;;9.82;4.28;;;23.00;99.90;;;;;;5046343;28;20033;-69
2023/08/11 08:53:39;;;;;;;10.27;3.60;;;23.00;99.90;;;;;;5080618;28;20132;-67
2023/08/11 08:56:06;;;;;;;6.35;3.47;;;23.00;99.90;;;;;;5046842;28;20051;-67
2023/08/11 08:58:32;;;;;;;9.68;3.85;;;23.00;99.90;;;;;;5055667;28;20044;-67
2023/08/11 09:01:02;;;;;;;7.65;3.45;;;23.10;99.90;;;;;;5063257;28;20053;-66
2023/08/11 09:03:33;;;;;;;9.73;3.63;;;23.10;99.90;;;;;;5029914;28;20050;-67
2023/08/11 09:05:59;;;;;;;7.20;3.40;;;23.10;99.90;;;;;;5046141;28;20040;-65
2023/08/11 09:08:24;;;;;;;8.48;3.55;;;23.10;99.90;;;;;;5046383;28;20404;-65
2023/08/11 09:10:50;;;;;;;6.45;3.00;;;23.10;99.90;;;;;;5046156;28;20040;-67
2023/08/11 09:13:16;;;;;;;7.85;3.35;;;23.20;99.90;;;;;;5053031;28;20051;-66
2023/08/11 09:15:42;;;;;;;8.35;3.40;;;23.10;99.90;;;;;;5047316;28;20036;-67
2023/08/11 09:18:13;;;;;;;10.82;2.88;;;23.20;99.90;;;;;;5066439;28;20051;-65
2023/08/11 09:20:39;;;;;;;8.23;3.72;;;23.20;99.90;;;;;;5047944;28;20041;-66
2023/08/11 09:23:06;;;;;;;6.65;3.08;;;23.30;99.90;;;;;;5067557;28;20047;-69
2023/08/11 09:25:32;;;;;;;8.45;3.20;;;23.30;99.90;;;;;;5052456;28;20045;-67
2023/08/11 09:27:58;;;;;;;8.23;3.13;;;23.30;99.90;;;;;;5047218;28;20033;-66
2023/08/11 09:30:31;;;;;;;6.88;3.40;;;23.40;99.90;;;;;;5062382;28;20055;-66
2023/08/11 09:33:03;;;;;;;7.00;3.33;;;23.40;99.90;;;;;;5046056;28;20076;-65
2023/08/11 09:35:29;;;;;;;10.63;3.42;;;23.50;99.90;;;;;;5095745;28;20431;-67
2023/08/11 09:37:56;;;;;;;8.13;3.53;;;23.50;99.90;;;;;;5063473;28;20629;-65
2023/08/11 09:40:22;;;;;;;8.48;2.80;;;23.60;99.90;;;;;;5079387;28;20059;-67
2023/08/11 09:42:48;;;;;;;9.90;3.25;;;23.80;99.90;;;;;;5037223;28;20499;-68
2023/08/11 09:45:14;;;;;;;9.82;3.38;;;24.00;99.90;;;;;;5051834;28;20123;-68
2023/08/11 09:47:40;;;;;;;7.57;3.22;;;24.10;99.90;;;;;;5045677;28;20118;-67
2023/08/11 09:50:08;;;;;;;8.30;3.10;;;24.20;99.90;;;;;;5082724;28;20037;-66
2023/08/11 09:52:35;;;;;;;6.65;3.33;;;24.20;99.90;;;;;;5065477;28;20051;-70
2023/08/11 09:55:06;;;;;;;11.27;3.58;;;24.30;99.90;;;;;;5049022;28;20044;-67
2023/08/11 09:57:35;;;;;;;7.68;3.33;;;24.40;99.90;;;;;;5062608;28;20055;-67
2023/08/11 10:00:01;;;;;;;7.50;3.33;;;24.40;99.90;;;;;;5039934;28;20044;-64
2023/08/11 10:02:30;;;;;;;9.02;3.15;;;24.40;99.90;;;;;;5066770;28;20071;-67
2023/08/11 10:04:58;;;;;;;6.93;2.72;;;24.40;99.90;;;;;;5047150;28;20051;-67
2023/08/11 10:07:34;;;;;;;7.93;3.50;;;24.40;99.90;;;;;;5066380;28;20055;-66
2023/08/11 10:10:03;;;;;;;9.20;3.10;;;24.40;99.90;;;;;;5065200;28;20483;-66
2023/08/11 10:12:29;;;;;;;9.13;3.35;;;24.50;99.90;;;;;;5061373;28;20547;-65
2023/08/11 10:14:55;;;;;;;9.68;3.20;;;24.60;99.90;;;;;;5053035;28;20052;-65
2023/08/11 10:17:22;;;;;;;7.72;3.13;;;24.70;99.90;;;;;;5046655;28;20040;-65
2023/08/11 10:19:48;;;;;;;8.57;3.08;;;24.80;99.90;;;;;;5045651;28;20480;-67
2023/08/11 10:22:14;;;;;;;8.60;3.25;;;25.00;99.90;;;;;;5060693;28;20047;-66
2023/08/11 10:24:42;;;;;;;5.63;2.53;;;25.00;99.90;;;;;;5065190;28;20044;-67
2023/08/11 10:27:08;;;;;;;7.70;3.00;;;25.00;99.90;;;;;;5048083;28;20051;-66
2023/08/11 10:29:35;;;;;;;10.10;3.00;;;25.00;99.90;;;;;;5052892;28;20044;-66
2023/08/11 10:32:01;;;;;;;5.60;2.80;;;25.10;99.90;;;;;;5052437;28;20400;-69
2023/08/11 10:34:27;;;;;;;5.25;2.35;;;25.20;99.90;;;;;;5044574;28;20044;-66
2023/08/11 10:36:57;;;;;;;6.03;2.72;;;25.20;99.90;;;;;;5047133;28;20455;-66
2023/08/11 10:39:23;;;;;;;6.28;2.70;;;25.20;99.90;;;;;;5064631;28;20048;-66
2023/08/11 10:41:50;;;;;;;8.20;2.67;;;25.20;99.90;;;;;;5065766;28;20400;-67
2023/08/11 10:44:20;;;;;;;6.72;2.60;;;25.30;99.90;;;;;;5056000;28;20052;-66
2023/08/11 10:46:46;;;;;;;5.85;2.80;;;25.20;99.90;;;;;;5044206;28;20047;-66
2023/08/11 10:49:12;;;;;;;6.80;2.80;;;25.10;99.90;;;;;;5046195;28;20033;-66
2023/08/11 10:51:39;;;;;;;6.65;2.72;;;25.10;99.90;;;;;;5044629;28;20045;-68
2023/08/11 10:54:11;;;;;;;7.63;2.55;;;25.00;99.90;;;;;;5047891;28;20055;-66
2023/08/11 10:56:40;;;;;;;9.02;2.60;;;25.00;99.90;;;;;;5065444;28;20500;-65
2023/08/11 10:59:13;;;;;;;4.95;2.40;;;24.90;99.90;;;;;;5054109;28;20055;-65
2023/08/11 11:01:41;;;;;;;6.63;2.60;;;24.90;99.90;;;;;;5065914;28;20056;-65
2023/08/11 11:04:08;;;;;;;7.25;2.65;;;24.80;99.90;;;;;;5065380;28;20398;-66
2023/08/11 11:06:37;;;;;;;5.65;2.30;;;24.90;99.90;;;;;;5063820;28;20036;-67
2023/08/11 11:09:03;;;;;;;10.43;3.20;;;25.00;99.90;;;;;;5045400;28;20086;-66
2023/08/11 11:11:32;;;;;;;6.20;2.60;;;25.10;99.90;;;;;;5063906;28;20036;-66
2023/08/11 11:13:58;;;;;;;5.05;2.22;;;25.30;99.90;;;;;;5041493;28;20036;-66
2023/08/11 11:16:24;;;;;;;6.00;2.35;;;25.40;99.90;;;;;;5044070;28;20423;-66
2023/08/11 11:18:50;;;;;;;6.18;2.60;;;25.40;99.90;;;;;;5050530;28;20039;-66
2023/08/11 11:21:17;;;;;;;7.88;2.40;;;25.50;99.90;;;;;;5097758;28;20052;-68
2023/08/11 11:23:49;;;;;;;9.23;2.13;;;25.60;99.90;;;;;;5048498;28;20264;-63
2023/08/11 11:26:24;;;;;;;5.60;2.60;;;25.60;99.90;;;;;;5043863;28;20517;-63
2023/08/11 11:28:51;;;;;;;6.03;2.50;;;25.70;99.90;;;;;;5045043;28;20040;-67
2023/08/11 11:31:18;;;;;;;7.13;2.78;;;25.70;99.90;;;;;;5040891;28;20042;-67
2023/08/11 11:33:44;;;;;;;5.68;2.45;;;25.80;99.90;;;;;;5043783;28;20041;-66
2023/08/11 11:36:11;;;;;;;6.28;2.40;;;25.80;99.90;;;;;;5077068;28;20059;-66
2023/08/11 11:38:37;;;;;;;7.07;2.58;;;26.00;99.90;;;;;;5043850;28;20053;-64
2023/08/11 11:41:02;;;;;;;5.90;2.60;;;26.00;99.90;;;;;;5043583;28;20041;-65
2023/08/11 11:43:28;;;;;;;6.47;2.90;;;26.20;99.90;;;;;;5048917;28;20045;-66
2023/08/11 11:45:55;;;;;;;6.07;2.58;;;26.30;99.90;;;;;;5063353;28;20036;-65
2023/08/11 11:48:21;;;;;;;5.55;2.30;;;26.30;99.90;;;;;;5063848;28;20306;-68
2023/08/11 11:50:47;;;;;;;8.02;3.03;;;26.40;99.90;;;;;;5044708;28;20051;-66
2023/08/11 11:53:13;;;;;;;6.97;2.95;;;26.40;99.90;;;;;;5063827;28;20066;-65
2023/08/11 11:55:46;;;;;;;6.70;2.65;;;26.30;99.90;;;;;;5061840;28;20036;-67
2023/08/11 11:58:14;;;;;;;6.88;2.50;;;26.30;99.90;;;;;;5060255;28;20373;-67
2023/08/11 12:00:41;;;;;;;5.97;2.55;;;26.20;99.90;;;;;;5064079;28;20049;-67
2023/08/11 12:03:07;;;;;;;5.18;2.42;;;26.20;99.90;;;;;;5067562;28;20481;-67
2023/08/11 12:05:33;;;;;;;7.50;2.45;;;26.20;99.90;;;;;;5066330;28;20040;-65
2023/08/11 12:07:59;;;;;;;6.95;2.42;;;26.30;99.90;;;;;;5067360;28;20043;-65
2023/08/11 12:10:32;;;;;;;8.07;2.67;;;26.30;99.90;;;;;;5067375;28;20259;-64
2023/08/11 12:13:03;;;;;;;7.63;2.67;;;26.30;99.90;;;;;;5052694;28;20531;-65
2023/08/11 12:15:31;;;;;;;9.15;2.97;;;26.30;99.90;;;;;;5050978;28;20365;-65
2023/08/11 12:17:57;;;;;;;6.13;2.50;;;26.30;99.90;;;;;;5049071;28;20063;-64
2023/08/11 12:20:23;;;;;;;6.20;2.90;;;26.30;99.90;;;;;;5062740;28;20044;-64
2023/08/11 12:22:49;;;;;;;7.20;2.63;;;26.40;99.90;;;;;;5067682;28;20051;-68
2023/08/11 12:25:16;;;;;;;5.93;2.58;;;26.40;99.90;;;;;;5048673;28;20044;-63
2023/08/11 12:27:41;;;;;;;6.22;2.90;;;26.40;99.90;;;;;;5066978;28;20084;-71
2023/08/11 12:30:10;;;;;;;5.78;2.50;;;26.50;99.90;;;;;;5037187;28;20076;-66
2023/08/11 12:32:36;;;;;;;5.55;2.60;;;26.50;99.90;;;;;;5029947;28;20037;-65
2023/08/11 12:35:02;;;;;;;7.35;2.58;;;26.50;99.90;;;;;;5046931;28;20040;-67